Time;durP1;ratioP1;P1;durP2;ratioP2;P2;SDS_P1;SDS_P2;PMS_P1;PMS_P2;Temp;Humidity;BMP_temperature;BMP_pressure;BME280_temperature;BME280_humidity;BME280_pressure;Samples;Min_cycle;Max_cycle;Signal;HPM_P1;HPM_P2
2021/05/27 00:00:42;;;;;;;;;;;;;;;19.07;54.42;100736.75;5110025;28;19916;-81
2021/05/27 00:03:27;;;;;;;;;;;;;;;19.11;54.38;100729.31;5115064;28;19911;-81
2021/05/27 00:06:11;;;;;;;;;;;;;;;19.13;54.02;100733.28;5117393;28;19911;-81
2021/05/27 00:08:55;;;;;;;;;;;;;;;19.02;53.85;100729.59;5095915;28;19912;-80
2021/05/27 00:11:40;;;;;;;;;;;;;;;18.86;54.46;100719.88;5097239;28;19912;-81
2021/05/27 00:14:24;;;;;;;;;;;;;;;18.76;55.10;100721.31;5095538;28;20227;-81
2021/05/27 00:17:09;;;;;;;;;;;;;;;18.85;54.67;100721.03;5117139;28;19912;-80
2021/05/27 00:19:54;;;;;;;;;;;;;;;18.82;54.22;100721.78;5116110;28;19911;-81
2021/05/27 00:22:39;;;;;;;;;;;;;;;18.91;54.71;100716.81;5115809;28;20594;-78
2021/05/27 00:25:23;;;;;;;;;;;;;;;19.00;54.72;100711.81;5119682;28;19911;-81
2021/05/27 00:28:08;;;;;;;;;;;;;;;18.77;53.27;100715.44;5117888;28;19912;-81
2021/05/27 00:30:53;;;;;;;;;;;;;;;18.32;55.15;100718.22;5116527;28;19911;-82
2021/05/27 00:33:37;;;;;;;;;;;;;;;18.50;55.68;100711.03;5119816;28;19912;-79
2021/05/27 00:36:21;;;;;;;;;;;;;;;18.35;55.03;100709.19;5118662;28;19915;-80
2021/05/27 00:39:06;;;;;;;;;;;;;;;18.59;55.68;100697.81;5116333;28;20305;-81
2021/05/27 00:41:50;;;;;;;;;;;;;;;18.76;55.28;100704.78;5121079;28;19915;-84
2021/05/27 00:44:34;;;;;;;;;;;;;;;18.76;54.52;100702.81;5118489;28;19912;-83
2021/05/27 00:47:20;;;;;;;;;;;;;;;18.63;54.39;100700.66;5087650;28;20285;-84
2021/05/27 00:50:06;;;;;;;;;;;;;;;18.69;55.00;100688.16;5105081;28;20304;-84
2021/05/27 00:52:51;;;;;;;;;;;;;;;18.80;55.09;100698.16;5119884;28;20293;-83
2021/05/27 00:55:36;;;;;;;;;;;;;;;18.87;54.69;100688.41;5117370;28;20373;-83
2021/05/27 00:58:21;;;;;;;;;;;;;;;18.95;54.67;100692.84;5120199;28;19912;-81
2021/05/27 01:04:54;;;;;;;;;;;;;;;19.08;54.02;100692.28;5119985;28;19912;-83
2021/05/27 01:07:41;;;;;;;;;;;;;;;19.12;54.14;100692.31;5118080;28;19912;-80
2021/05/27 01:10:28;;;;;;;;;;;;;;;19.14;53.88;100692.75;5099438;28;20401;-79
2021/05/27 01:13:13;;;;;;;;;;;;;;;19.15;53.69;100681.31;5119516;28;19911;-81
2021/05/27 01:15:57;;;;;;;;;;;;;;;19.18;53.65;100685.31;5105629;28;19912;-79
2021/05/27 01:18:43;;;;;;;;;;;;;;;19.17;53.64;100683.72;5094702;28;19912;-79
2021/05/27 01:21:30;;;;;;;;;;;;;;;19.17;53.76;100681.75;5097664;28;19916;-80
2021/05/27 01:24:15;;;;;;;;;;;;;;;19.16;53.72;100666.38;5107255;28;19912;-80
2021/05/27 01:27:01;;;;;;;;;;;;;;;19.17;53.56;100669.94;5099226;28;20370;-80
2021/05/27 01:29:52;;;;;;;;;;;;;;;19.07;53.44;100670.59;5119280;28;19911;-79
2021/05/27 01:32:37;;;;;;;;;;;;;;;19.15;53.59;100666.75;5116729;28;20289;-81
2021/05/27 01:35:23;;;;;;;;;;;;;;;19.17;53.56;100667.97;5114624;28;19916;-80
2021/05/27 01:38:15;;;;;;;;;;;;;;;19.20;53.42;100664.44;5118770;28;20290;-80
2021/05/27 01:41:03;;;;;;;;;;;;;;;19.17;53.54;100667.97;5087147;28;19916;-80
2021/05/27 01:43:50;;;;;;;;;;;;;;;19.19;53.58;100665.66;5085040;28;20358;-79
2021/05/27 01:46:35;;;;;;;;;;;;;;;19.19;53.55;100662.88;5089357;28;19912;-80
2021/05/27 01:49:22;;;;;;;;;;;;;;;19.20;53.40;100669.16;5116391;28;19916;-80
2021/05/27 01:52:09;;;;;;;;;;;;;;;19.21;53.42;100659.75;5090814;28;19911;-81
2021/05/27 01:54:54;;;;;;;;;;;;;;;19.20;53.35;100655.38;5083040;28;20377;-80
2021/05/27 01:57:39;;;;;;;;;;;;;;;19.21;53.50;100645.94;5102229;28;19911;-83
2021/05/27 02:00:30;;;;;;;;;;;;;;;19.22;53.25;100653.06;5084030;28;19911;-81
2021/05/27 02:03:18;;;;;;;;;;;;;;;19.20;53.25;100649.88;5090241;28;19920;-83
2021/05/27 02:06:10;;;;;;;;;;;;;;;19.20;53.50;100655.38;5102259;28;19911;-85
2021/05/27 02:09:08;;;;;;;;;;;;;;;19.17;53.27;100656.94;5100940;28;19916;-81
2021/05/27 02:11:55;;;;;;;;;;;;;;;19.15;53.01;100648.25;5088068;28;19911;-80
2021/05/27 02:14:39;;;;;;;;;;;;;;;19.14;52.99;100652.19;5084693;28;20293;-81
2021/05/27 02:17:23;;;;;;;;;;;;;;;19.14;52.89;100649.44;5090001;28;19915;-81
2021/05/27 02:20:09;;;;;;;;;;;;;;;19.14;52.95;100652.19;5113409;28;19912;-79
2021/05/27 02:22:54;;;;;;;;;;;;;;;19.08;53.07;100656.44;5086102;28;19915;-81
2021/05/27 02:25:56;;;;;;;;;;;;;;;19.03;53.25;100647.69;5102625;28;19911;-80
2021/05/27 02:29:05;;;;;;;;;;;;;;;19.02;53.45;100649.66;5099872;28;20305;-80
2021/05/27 02:31:53;;;;;;;;;;;;;;;19.06;53.62;100646.94;5097542;28;19912;-80
2021/05/27 02:38:29;;;;;;;;;;;;;;;19.10;53.34;100642.25;5131022;28;19912;-80
2021/05/27 02:41:20;;;;;;;;;;;;;;;19.12;53.26;100645.44;5114797;28;20002;-79
2021/05/27 02:44:07;;;;;;;;;;;;;;;19.11;53.22;100646.59;5097678;28;19912;-79
2021/05/27 02:46:58;;;;;;;;;;;;;;;19.10;53.07;100642.25;5102398;28;20365;-80
2021/05/27 02:49:43;;;;;;;;;;;;;;;19.11;52.94;100646.59;5100370;28;19912;-82
2021/05/27 02:52:28;;;;;;;;;;;;;;;19.02;52.96;100646.91;5102450;28;19912;-84
2021/05/27 02:55:13;;;;;;;;;;;;;;;18.68;52.81;100643.28;5095026;28;19912;-80
2021/05/27 02:57:58;;;;;;;;;;;;;;;18.56;54.09;100639.94;5108193;28;19916;-84
2021/05/27 03:00:44;;;;;;;;;;;;;;;18.74;54.52;100641.78;5099657;28;19911;-84
2021/05/27 03:03:39;;;;;;;;;;;;;;;18.87;54.11;100638.81;5103437;28;19912;-84
2021/05/27 03:06:23;;;;;;;;;;;;;;;18.98;53.79;100637.00;5116777;28;19911;-83
2021/05/27 03:09:10;;;;;;;;;;;;;;;19.04;53.48;100644.56;5108006;28;19912;-84
2021/05/27 03:11:56;;;;;;;;;;;;;;;18.93;53.38;100645.59;5108692;28;20385;-81
2021/05/27 03:14:44;;;;;;;;;;;;;;;18.83;52.68;100641.53;5106200;28;19915;-82
2021/05/27 03:17:35;;;;;;;;;;;;;;;18.84;53.68;100639.56;5109318;22;19912;-80
2021/05/27 03:20:21;;;;;;;;;;;;;;;18.76;53.63;100633.16;5044601;28;19929;-80
2021/05/27 03:23:07;;;;;;;;;;;;;;;18.63;52.93;100638.09;5047130;28;19921;-81
2021/05/27 03:25:52;;;;;;;;;;;;;;;18.17;53.38;100636.56;5039409;28;19916;-79
2021/05/27 03:28:38;;;;;;;;;;;;;;;17.67;54.93;100629.38;5073230;28;20311;-80
2021/05/27 03:31:29;;;;;;;;;;;;;;;16.94;57.30;100622.81;5047372;28;19916;-80
2021/05/27 03:34:14;;;;;;;;;;;;;;;16.44;58.99;100629.09;5055903;28;19913;-79
2021/05/27 03:36:58;;;;;;;;;;;;;;;16.19;60.32;100622.22;5059967;28;19916;-79
2021/05/27 03:40:10;;;;;;;;;;;;;;;16.01;61.16;100612.75;5043324;28;19913;-79
2021/05/27 03:42:54;;;;;;;;;;;;;;;15.92;61.58;100618.41;5038552;28;19925;-81
2021/05/27 03:45:39;;;;;;;;;;;;;;;15.98;61.69;100632.66;5050942;28;19939;-79
2021/05/27 03:48:30;;;;;;;;;;;;;;;16.04;61.32;100631.25;5034298;28;19913;-78
2021/05/27 03:51:14;;;;;;;;;;;;;;;15.91;61.81;100633.28;5049547;28;19913;-79
2021/05/27 03:53:59;;;;;;;;;;;;;;;15.75;62.27;100636.00;5058906;28;19912;-79
2021/05/27 03:56:46;;;;;;;;;;;;;;;15.74;61.59;100628.94;5063714;28;19913;-79
2021/05/27 04:02:45;;;;;;;;;;;;;;;15.45;62.87;100636.69;5037834;28;19917;-79
2021/05/27 04:08:48;;;;;;;;;;;;;;;15.29;63.77;100639.38;5054554;28;19916;-79
2021/05/27 04:11:32;;;;;;;;;;;;;;;14.79;65.37;100639.88;5052510;28;19913;-79
2021/05/27 04:14:17;;;;;;;;;;;;;;;15.05;64.54;100650.44;5069489;28;19916;-79
2021/05/27 04:17:01;;;;;;;;;;;;;;;15.26;63.77;100660.06;5054451;28;19920;-79
2021/05/27 04:19:46;;;;;;;;;;;;;;;15.10;64.85;100648.25;5048677;28;19913;-79
2021/05/27 04:22:30;;;;;;;;;;;;;;;15.04;64.91;100649.63;5054338;28;20293;-79
2021/05/27 04:25:16;;;;;;;;;;;;;;;15.09;65.29;100654.88;5051924;28;19921;-79
2021/05/27 04:28:02;;;;;;;;;;;;;;;15.16;65.17;100652.34;5051508;28;19917;-79
2021/05/27 04:33:52;;;;;;;;;;;;;;;15.41;64.99;100644.81;5057827;28;19920;-79
2021/05/27 04:36:38;;;;;;;;;;;;;;;15.54;64.22;100653.84;5057021;28;19917;-79
2021/05/27 04:39:22;;;;;;;;;;;;;;;15.54;64.60;100656.56;5052186;28;20407;-80
2021/05/27 04:42:06;;;;;;;;;;;;;;;15.44;64.45;100651.56;5055937;28;19916;-79
2021/05/27 04:44:51;;;;;;;;;;;;;;;15.33;65.69;100660.28;5052922;28;19916;-80
2021/05/27 04:47:36;;;;;;;;;;;;;;;15.48;64.67;100653.25;5059884;28;19912;-79
2021/05/27 04:50:21;;;;;;;;;;;;;;;15.56;64.45;100646.03;5052258;28;19913;-79
2021/05/27 04:53:07;;;;;;;;;;;;;;;15.99;63.24;100657.00;5050331;28;19913;-79
2021/05/27 04:55:53;;;;;;;;;;;;;;;16.11;62.38;100658.84;5055989;28;19917;-80
2021/05/27 04:58:37;;;;;;;;;;;;;;;16.17;61.86;100655.50;5055770;28;19920;-81
2021/05/27 05:01:22;;;;;;;;;;;;;;;16.45;61.52;100655.41;5053712;28;19917;-81
2021/05/27 05:04:07;;;;;;;;;;;;;;;16.62;61.57;100657.78;5050727;28;19921;-81
2021/05/27 05:06:51;;;;;;;;;;;;;;;16.95;60.92;100660.13;5055323;28;19913;-81
2021/05/27 05:09:36;;;;;;;;;;;;;;;17.06;59.44;100652.91;5052241;28;19912;-82
2021/05/27 05:12:20;;;;;;;;;;;;;;;17.23;59.82;100659.09;5053021;28;19920;-81
2021/05/27 05:15:05;;;;;;;;;;;;;;;17.43;59.23;100660.69;5056590;28;20392;-81
2021/05/27 05:17:51;;;;;;;;;;;;;;;17.34;58.38;100660.94;5055354;28;19912;-83
2021/05/27 05:20:37;;;;;;;;;;;;;;;17.32;58.77;100665.22;5052414;28;19924;-81
2021/05/27 05:23:22;;;;;;;;;;;;;;;17.46;58.55;100663.53;5055687;28;19917;-80
2021/05/27 05:26:07;;;;;;;;;;;;;;;17.37;59.02;100664.91;5055688;28;19912;-82
2021/05/27 05:28:52;;;;;;;;;;;;;;;17.20;58.80;100671.63;5060499;28;19912;-81
2021/05/27 05:31:36;;;;;;;;;;;;;;;17.25;59.52;100678.78;5064152;28;19912;-82
2021/05/27 05:34:21;;;;;;;;;;;;;;;17.45;59.10;100678.44;5063883;28;19917;-81
2021/05/27 05:37:06;;;;;;;;;;;;;;;17.47;58.68;100680.84;5063568;28;19913;-81
2021/05/27 05:39:51;;;;;;;;;;;;;;;17.52;59.14;100678.56;5067011;28;19912;-81
2021/05/27 05:42:36;;;;;;;;;;;;;;;17.48;58.66;100674.16;5068525;28;19916;-81
2021/05/27 05:45:21;;;;;;;;;;;;;;;17.38;59.04;100680.22;5054182;28;19913;-82
2021/05/27 05:48:08;;;;;;;;;;;;;;;17.33;59.75;100675.81;5068592;28;19913;-82
2021/05/27 05:50:57;;;;;;;;;;;;;;;17.39;59.62;100685.38;5062482;28;19913;-82
2021/05/27 05:53:41;;;;;;;;;;;;;;;17.53;59.20;100684.84;5057972;28;19913;-82
2021/05/27 05:56:26;;;;;;;;;;;;;;;17.54;58.62;100689.19;5062489;28;19912;-81
2021/05/27 05:59:11;;;;;;;;;;;;;;;17.45;59.14;100689.44;5066446;28;19912;-82
2021/05/27 06:01:55;;;;;;;;;;;;;;;17.46;59.51;100690.22;5058314;28;19916;-82
2021/05/27 06:04:41;;;;;;;;;;;;;;;17.50;59.24;100683.66;5046538;28;20384;-82
2021/05/27 06:07:44;;;;;;;;;;;;;;;17.59;58.81;100683.44;5056917;28;19917;-81
2021/05/27 06:10:29;;;;;;;;;;;;;;;17.67;58.96;100685.19;5057016;28;19913;-82
2021/05/27 06:13:14;;;;;;;;;;;;;;;17.74;58.33;100690.00;5061541;28;19913;-82
2021/05/27 06:15:59;;;;;;;;;;;;;;;17.83;58.36;100693.31;5058211;28;19975;-82
2021/05/27 06:18:44;;;;;;;;;;;;;;;18.07;58.09;100693.00;5057070;28;19913;-82
2021/05/27 06:21:35;;;;;;;;;;;;;;;18.12;57.84;100702.91;5060468;28;19917;-81
2021/05/27 06:24:25;;;;;;;;;;;;;;;18.15;57.37;100702.16;5042869;28;20388;-82
2021/05/27 06:27:10;;;;;;;;;;;;;;;18.20;56.99;100699.91;5056894;28;19917;-82
2021/05/27 06:29:55;;;;;;;;;;;;;;;18.29;57.06;100710.66;5060613;28;19913;-82
2021/05/27 06:32:40;;;;;;;;;;;;;;;18.32;57.00;100705.25;5059009;28;19912;-82
2021/05/27 06:35:25;;;;;;;;;;;;;;;18.41;56.89;100707.75;5056651;28;19913;-82
2021/05/27 06:38:13;;;;;;;;;;;;;;;18.34;56.83;100702.91;5060477;28;19913;-82
2021/05/27 06:40:58;;;;;;;;;;;;;;;18.39;56.29;100707.31;5058013;28;20296;-82
2021/05/27 06:43:43;;;;;;;;;;;;;;;18.52;56.10;100710.66;5036533;28;19917;-82
2021/05/27 06:46:27;;;;;;;;;;;;;;;18.46;56.26;100712.94;5040969;28;19913;-82
2021/05/27 06:49:12;;;;;;;;;;;;;;;18.59;55.88;100708.84;5061678;28;19913;-82
2021/05/27 06:51:57;;;;;;;;;;;;;;;18.82;53.99;100705.25;5064802;28;19912;-82
2021/05/27 06:54:41;;;;;;;;;;;;;;;18.85;53.61;100712.78;5071823;28;19913;-82
2021/05/27 06:57:28;;;;;;;;;;;;;;;18.85;53.98;100708.06;5071067;28;19912;-82
2021/05/27 07:00:19;;;;;;;;;;;;;;;18.98;54.08;100706.69;5065194;28;19912;-82
2021/05/27 07:03:04;;;;;;;;;;;;;;;19.11;53.98;100712.78;5060599;28;20384;-84
2021/05/27 07:05:49;;;;;;;;;;;;;;;19.26;54.08;100708.25;5065574;28;19912;-82
2021/05/27 07:08:34;;;;;;;;;;;;;;;19.34;53.62;100719.00;5060635;28;19913;-81
2021/05/27 07:11:18;;;;;;;;;;;;;;;19.32;53.99;100704.78;5058896;28;19917;-82
2021/05/27 07:14:04;;;;;;;;;;;;;;;19.35;54.09;100708.78;5061437;28;19912;-81
2021/05/27 07:16:48;;;;;;;;;;;;;;;19.31;54.04;100705.94;5053411;28;19924;-81
2021/05/27 07:19:33;;;;;;;;;;;;;;;19.32;53.84;100702.03;5057620;28;19913;-81
2021/05/27 07:22:17;;;;;;;;;;;;;;;19.33;54.23;100697.31;5057630;28;19917;-82
2021/05/27 07:25:02;;;;;;;;;;;;;;;19.33;54.66;100709.13;5057813;28;19920;-82
2021/05/27 07:27:49;;;;;;;;;;;;;;;19.41;53.99;100702.53;5048109;28;20539;-81
2021/05/27 07:30:36;;;;;;;;;;;;;;;19.48;53.63;100707.38;5060795;28;19913;-81
2021/05/27 07:33:21;;;;;;;;;;;;;;;19.44;54.10;100710.09;5059659;28;19912;-81
2021/05/27 07:36:06;;;;;;;;;;;;;;;19.50;52.88;100714.13;5061291;28;19917;-81
2021/05/27 07:38:51;;;;;;;;;;;;;;;19.64;52.41;100714.28;5056271;28;19913;-81
2021/05/27 07:41:35;;;;;;;;;;;;;;;19.75;52.55;100713.63;5058787;28;19912;-81
2021/05/27 07:44:20;;;;;;;;;;;;;;;19.76;52.57;100720.72;5058199;28;19916;-81
2021/05/27 07:47:05;;;;;;;;;;;;;;;19.78;52.66;100718.38;5064263;28;19913;-82
2021/05/27 07:49:51;;;;;;;;;;;;;;;20.05;50.98;100722.63;5060311;28;20293;-84
2021/05/27 07:52:37;;;;;;;;;;;;;;;20.04;51.58;100724.59;5058240;28;19912;-83
2021/05/27 07:55:21;;;;;;;;;;;;;;;19.98;51.83;100717.81;5061090;28;19913;-82
2021/05/27 07:58:06;;;;;;;;;;;;;;;19.97;52.18;100716.22;5064405;28;19912;-82
2021/05/27 08:00:51;;;;;;;;;;;;;;;19.96;52.01;100711.88;5061711;28;19912;-82
2021/05/27 08:03:41;;;;;;;;;;;;;;;19.97;51.97;100713.47;5077890;28;19916;-82
2021/05/27 08:06:25;;;;;;;;;;;;;;;19.98;51.75;100711.50;5061347;28;20384;-81
2021/05/27 08:09:11;;;;;;;;;;;;;;;20.03;51.82;100713.91;5058089;28;20327;-81
2021/05/27 08:11:55;;;;;;;;;;;;;;;20.35;50.65;100701.25;5061380;28;19913;-82
2021/05/27 08:14:40;;;;;;;;;;;;;;;20.38;50.94;100706.00;5061333;28;19912;-81
2021/05/27 08:17:24;;;;;;;;;;;;;;;20.40;50.80;100705.63;5057650;28;19913;-81
2021/05/27 08:20:09;;;;;;;;;;;;;;;20.38;50.83;100706.00;5060765;28;19938;-80
2021/05/27 08:22:54;;;;;;;;;;;;;;;20.36;51.17;100705.59;5058350;28;19916;-82
2021/05/27 08:25:39;;;;;;;;;;;;;;;20.51;50.99;100706.50;5057121;28;19931;-81
2021/05/27 08:28:23;;;;;;;;;;;;;;;20.52;50.20;100701.78;5057784;28;19913;-82
2021/05/27 08:31:09;;;;;;;;;;;;;;;20.62;50.30;100707.34;5061724;28;19912;-82
2021/05/27 08:33:54;;;;;;;;;;;;;;;20.65;50.51;100695.56;5078544;28;19912;-81
2021/05/27 08:36:38;;;;;;;;;;;;;;;20.76;49.91;100690.09;5069743;28;19917;-82
2021/05/27 08:39:24;;;;;;;;;;;;;;;20.78;50.01;100693.25;5064323;28;19913;-82
2021/05/27 08:42:08;;;;;;;;;;;;;;;20.74;49.73;100696.00;5061576;28;19920;-81
2021/05/27 08:44:55;;;;;;;;;;;;;;;20.71;50.03;100696.00;5067162;28;19916;-88
2021/05/27 08:47:39;;;;;;;;;;;;;;;20.81;49.65;100698.03;5065740;28;19912;-83
2021/05/27 08:50:30;;;;;;;;;;;;;;;20.88;49.75;100701.63;5061094;28;19916;-81
2021/05/27 08:53:16;;;;;;;;;;;;;;;20.97;49.57;100698.53;5063897;28;20388;-82
2021/05/27 08:56:00;;;;;;;;;;;;;;;21.00;49.31;100700.53;5061243;28;19913;-84
2021/05/27 08:58:45;;;;;;;;;;;;;;;21.04;49.25;100698.56;5066561;28;19912;-82
2021/05/27 09:01:29;;;;;;;;;;;;;;;21.07;49.28;100689.50;5067618;28;20372;-83
2021/05/27 09:04:23;;;;;;;;;;;;;;;21.08;49.78;100695.84;5065600;28;20078;-83
2021/05/27 09:07:11;;;;;;;;;;;;;;;21.17;48.97;100688.00;5047406;28;19912;-83
2021/05/27 09:09:57;;;;;;;;;;;;;;;21.21;48.75;100686.06;5069546;28;19913;-82
2021/05/27 09:12:43;;;;;;;;;;;;;;;21.32;49.13;100684.94;5060278;28;19912;-83
2021/05/27 09:15:27;;;;;;;;;;;;;;;21.27;48.88;100687.28;5062988;28;19913;-83
2021/05/27 09:18:13;;;;;;;;;;;;;;;21.26;49.03;100680.94;5098592;22;20922;-80
2021/05/27 09:20:58;;;;;;;;;;;;;;;21.38;48.80;100681.78;5068273;28;19924;-81
2021/05/27 09:23:50;;;;;;;;;;;;;;;21.45;48.54;100673.50;5090185;28;19917;-82
2021/05/27 09:26:54;;;;;;;;;;;;;;;21.48;48.14;100679.06;5097683;28;19920;-79
2021/05/27 09:29:43;;;;;;;;;;;;;;;21.64;47.55;100678.69;5082290;28;20308;-81
2021/05/27 09:32:28;;;;;;;;;;;;;;;21.52;47.81;100682.63;5080775;28;19912;-80
2021/05/27 09:35:14;;;;;;;;;;;;;;;21.90;46.38;100678.38;5092642;28;19921;-84
2021/05/27 09:37:58;;;;;;;;;;;;;;;21.80;46.92;100676.38;5079696;28;19912;-80
2021/05/27 09:40:46;;;;;;;;;;;;;;;21.88;46.70;100685.50;5076160;28;20365;-81
2021/05/27 09:43:31;;;;;;;;;;;;;;;21.66;46.06;100676.34;5081153;28;19917;-82
2021/05/27 09:46:16;;;;;;;;;;;;;;;21.78;46.77;100687.06;5078161;28;19912;-81
2021/05/27 09:49:08;;;;;;;;;;;;;;;21.77;46.85;100680.72;5081240;28;20392;-79
2021/05/27 09:51:54;;;;;;;;;;;;;;;21.61;47.37;100673.94;5082094;28;19920;-80
2021/05/27 09:54:54;;;;;;;;;;;;;;;21.55;47.80;100678.28;5075164;28;19912;-78
2021/05/27 09:57:40;;;;;;;;;;;;;;;21.64;47.47;100673.94;5076188;28;19913;-80
2021/05/27 10:00:26;;;;;;;;;;;;;;;21.70;47.44;100675.16;5077846;28;19919;-79
2021/05/27 10:03:32;;;;;;;;;;;;;;;21.81;47.22;100682.69;5076173;28;19916;-80
2021/05/27 10:06:17;;;;;;;;;;;;;;;22.06;46.32;100673.28;5084070;28;19913;-80
2021/05/27 10:09:04;;;;;;;;;;;;;;;22.15;46.40;100670.91;5077558;28;19912;-80
2021/05/27 10:11:49;;;;;;;;;;;;;;;22.05;46.54;100668.94;5079188;28;19912;-80
2021/05/27 10:14:33;;;;;;;;;;;;;;;22.35;44.93;100676.09;5085207;28;19913;-82
2021/05/27 10:17:18;;;;;;;;;;;;;;;22.19;45.36;100670.94;5089400;28;20387;-82
2021/05/27 10:20:11;;;;;;;;;;;;;;;22.28;45.69;100679.63;5051940;28;19921;-82
2021/05/27 10:22:56;;;;;;;;;;;;;;;22.20;45.85;100678.03;5052603;28;20304;-81
2021/05/27 10:25:42;;;;;;;;;;;;;;;21.98;46.41;100655.09;5058308;28;19913;-78
2021/05/27 10:28:27;;;;;;;;;;;;;;;22.04;46.84;100663.81;5051199;28;19913;-81
2021/05/27 10:31:12;;;;;;;;;;;;;;;22.07;46.50;100663.78;5057294;28;19917;-81
2021/05/27 10:33:58;;;;;;;;;;;;;;;22.05;46.52;100666.16;5049722;28;20388;-80
2021/05/27 10:36:43;;;;;;;;;;;;;;;22.00;47.07;100666.53;5047714;28;20440;-79
2021/05/27 10:39:31;;;;;;;;;;;;;;;22.24;44.76;100665.00;5041995;28;19912;-81
2021/05/27 10:42:16;;;;;;;;;;;;;;;22.20;45.71;100666.19;5051688;28;19916;-79
2021/05/27 10:45:07;;;;;;;;;;;;;;;22.29;45.91;100659.06;5048433;28;20285;-79
2021/05/27 10:48:11;;;;;;;;;;;;;;;22.37;45.72;100657.06;5048862;28;19913;-81
2021/05/27 10:51:22;;;;;;;;;;;;;;;22.30;45.73;100654.31;5043852;28;19913;-79
2021/05/27 10:54:08;;;;;;;;;;;;;;;22.24;45.63;100653.91;5045490;28;19913;-80
2021/05/27 10:56:52;;;;;;;;;;;;;;;22.14;45.72;100651.94;5052487;28;19921;-79
2021/05/27 10:59:37;;;;;;;;;;;;;;;22.17;45.76;100651.94;5054703;28;20023;-79
2021/05/27 11:02:24;;;;;;;;;;;;;;;22.34;45.35;100644.03;5042889;28;20656;-78
2021/05/27 11:05:22;;;;;;;;;;;;;;;22.50;44.57;100641.63;5050757;28;19912;-80
2021/05/27 11:08:17;;;;;;;;;;;;;;;22.46;45.07;100633.31;5053871;28;19917;-80
2021/05/27 11:11:25;;;;;;;;;;;;;;;22.50;45.09;100631.31;5054650;28;20285;-79
2021/05/27 11:14:28;;;;;;;;;;;;;;;22.58;44.92;100632.13;5056298;28;19913;-80
2021/05/27 11:17:15;;;;;;;;;;;;;;;22.74;44.31;100623.41;5049303;28;19912;-83
2021/05/27 11:22:53;;;;;;;;;;;;;;;22.98;43.45;100625.31;5084211;28;20387;-81
2021/05/27 11:25:40;;;;;;;;;;;;;;;23.14;43.20;100622.88;5085728;28;19912;-81
2021/05/27 11:28:26;;;;;;;;;;;;;;;23.09;43.17;100623.28;5081130;28;19916;-81
2021/05/27 11:31:10;;;;;;;;;;;;;;;23.01;43.02;100622.50;5075938;28;19912;-81
2021/05/27 11:34:03;;;;;;;;;;;;;;;23.14;42.72;100627.63;5080441;28;19916;-79
2021/05/27 11:36:57;;;;;;;;;;;;;;;23.11;42.92;100615.34;5077891;28;19916;-81
2021/05/27 11:39:48;;;;;;;;;;;;;;;23.14;42.74;100608.19;5074877;28;19912;-78
2021/05/27 11:42:37;;;;;;;;;;;;;;;23.28;42.09;100594.25;5077337;28;19916;-83
2021/05/27 11:45:24;;;;;;;;;;;;;;;23.36;41.86;100587.50;5069614;28;19912;-79
2021/05/27 11:48:20;;;;;;;;;;;;;;;23.33;42.42;100583.53;5072746;28;19912;-82
2021/05/27 11:51:12;;;;;;;;;;;;;;;23.22;42.63;100577.22;5076356;28;21158;-81
2021/05/27 11:53:58;;;;;;;;;;;;;;;23.02;42.91;100570.59;5074034;28;20295;-80
2021/05/27 11:56:45;;;;;;;;;;;;;;;23.03;43.15;100572.97;5083951;28;19912;-80
2021/05/27 11:59:29;;;;;;;;;;;;;;;23.04;42.40;100565.44;5072529;28;19912;-79
2021/05/27 12:02:14;;;;;;;;;;;;;;;23.10;42.31;100566.63;5072642;28;20304;-81
2021/05/27 12:04:58;;;;;;;;;;;;;;;23.32;40.70;100567.28;5062391;28;19920;-80
2021/05/27 12:07:55;;;;;;;;;;;;;;;23.27;40.83;100562.16;5064454;28;19912;-78
2021/05/27 12:10:47;;;;;;;;;;;;;;;23.35;40.94;100572.81;5075969;28;20529;-80
2021/05/27 12:13:32;;;;;;;;;;;;;;;23.40;41.21;100563.28;5080807;28;20383;-80
2021/05/27 12:16:28;;;;;;;;;;;;;;;23.28;41.40;100563.72;5078678;28;19913;-81
2021/05/27 12:19:13;;;;;;;;;;;;;;;23.25;41.35;100570.91;5085273;28;19924;-78
2021/05/27 12:21:58;;;;;;;;;;;;;;;23.18;41.46;100575.69;5068925;28;20380;-79
2021/05/27 12:24:42;;;;;;;;;;;;;;;23.26;41.27;100574.47;5081919;28;20291;-80
2021/05/27 12:27:36;;;;;;;;;;;;;;;23.12;42.00;100583.63;5080905;28;20323;-79
2021/05/27 12:30:22;;;;;;;;;;;;;;;22.96;42.21;100574.97;5082475;28;19912;-77
2021/05/27 12:33:09;;;;;;;;;;;;;;;22.99;41.96;100563.88;5086078;28;19967;-80
2021/05/27 12:35:54;;;;;;;;;;;;;;;23.18;41.61;100570.91;5077841;28;19912;-81
2021/05/27 12:38:47;;;;;;;;;;;;;;;23.10;42.20;100574.16;5072971;28;19916;-79
2021/05/27 12:41:32;;;;;;;;;;;;;;;22.89;42.20;100566.69;5085156;28;19912;-81
2021/05/27 12:44:27;;;;;;;;;;;;;;;22.75;41.97;100569.53;5086206;28;19916;-81
2021/05/27 12:47:13;;;;;;;;;;;;;;;22.77;40.26;100556.03;5090858;28;19916;-78
2021/05/27 12:49:59;;;;;;;;;;;;;;;22.97;39.31;100543.28;5094296;28;20303;-81
2021/05/27 12:52:43;;;;;;;;;;;;;;;23.07;40.05;100552.75;5086478;28;19920;-79
2021/05/27 12:55:29;;;;;;;;;;;;;;;23.02;40.65;100543.66;5086919;28;19916;-80
2021/05/27 12:58:28;;;;;;;;;;;;;;;22.99;40.81;100541.69;5089747;28;19912;-79
2021/05/27 13:01:14;;;;;;;;;;;;;;;23.01;40.90;100533.75;5085321;28;19912;-80
2021/05/27 13:03:59;;;;;;;;;;;;;;;23.01;41.04;100535.72;5086047;28;19920;-81
2021/05/27 13:06:44;;;;;;;;;;;;;;;22.84;41.55;100539.38;5079756;28;19912;-77
2021/05/27 13:09:41;;;;;;;;;;;;;;;22.75;41.71;100531.50;5076925;28;19912;-79
2021/05/27 13:12:26;;;;;;;;;;;;;;;22.48;42.54;100538.69;5087666;28;19920;-79
2021/05/27 13:15:11;;;;;;;;;;;;;;;22.51;41.88;100537.88;5077047;28;19920;-78
2021/05/27 13:18:02;;;;;;;;;;;;;;;22.54;41.96;100537.09;5059482;28;19916;-80
2021/05/27 13:21:00;;;;;;;;;;;;;;;22.55;41.30;100522.06;5079857;28;19912;-78
2021/05/27 13:23:45;;;;;;;;;;;;;;;22.81;40.71;100521.56;5082231;28;19921;-82
2021/05/27 13:26:32;;;;;;;;;;;;;;;22.90;41.08;100516.38;5081357;28;19913;-82
2021/05/27 13:29:16;;;;;;;;;;;;;;;22.83;40.95;100508.09;5080700;28;19912;-82
2021/05/27 13:32:01;;;;;;;;;;;;;;;22.85;41.24;100516.03;5081062;28;19913;-81
2021/05/27 13:34:46;;;;;;;;;;;;;;;22.83;41.15;100513.63;5078940;28;19913;-83
2021/05/27 13:37:33;;;;;;;;;;;;;;;22.81;41.00;100507.69;5082931;28;19913;-80
2021/05/27 13:40:19;;;;;;;;;;;;;;;22.72;41.91;100504.56;5080988;28;19912;-78
2021/05/27 13:43:05;;;;;;;;;;;;;;;22.51;41.88;100508.19;5078374;28;19916;-78
2021/05/27 13:45:50;;;;;;;;;;;;;;;22.52;42.21;100500.66;5070240;28;20303;-79
2021/05/27 13:48:35;;;;;;;;;;;;;;;22.67;41.40;100504.16;5044964;28;20323;-79
2021/05/27 13:51:20;;;;;;;;;;;;;;;22.84;40.04;100504.13;5058565;28;19912;-79
2021/05/27 13:54:05;;;;;;;;;;;;;;;22.88;40.74;100493.00;5062077;28;19912;-80
2021/05/27 13:56:51;;;;;;;;;;;;;;;22.75;41.29;100492.69;5060461;28;19912;-81
2021/05/27 13:59:35;;;;;;;;;;;;;;;22.65;41.33;100492.72;5070776;28;19917;-80
2021/05/27 14:02:20;;;;;;;;;;;;;;;22.45;42.56;100492.38;5062627;28;19913;-79
2021/05/27 14:05:05;;;;;;;;;;;;;;;22.39;42.92;100491.22;5060611;28;19916;-80
2021/05/27 14:07:51;;;;;;;;;;;;;;;22.30;43.02;100499.94;5058244;28;19912;-80
2021/05/27 14:10:35;;;;;;;;;;;;;;;22.24;42.29;100498.00;5046763;28;19912;-82
2021/05/27 14:13:20;;;;;;;;;;;;;;;22.18;42.80;100498.41;5060285;28;19912;-80
2021/05/27 14:16:04;;;;;;;;;;;;;;;22.15;42.77;100495.59;5055341;28;19913;-80
2021/05/27 14:18:49;;;;;;;;;;;;;;;22.02;43.30;100495.25;5055034;28;19912;-81
2021/05/27 14:21:34;;;;;;;;;;;;;;;22.01;42.82;100498.41;5059375;28;19912;-80
2021/05/27 14:24:19;;;;;;;;;;;;;;;21.91;42.97;100494.44;5057406;28;20380;-79
2021/05/27 14:27:04;;;;;;;;;;;;;;;21.89;42.82;100491.25;5055485;28;19913;-82
2021/05/27 14:29:50;;;;;;;;;;;;;;;21.87;42.88;100490.88;5056289;28;19913;-80
2021/05/27 14:32:34;;;;;;;;;;;;;;;21.86;43.06;100483.75;5056045;28;19913;-78
2021/05/27 14:35:19;;;;;;;;;;;;;;;21.83;43.09;100492.88;5055031;28;19913;-78